createdAt,value
2019-04-30T00:01:18.785Z,9.30
2019-04-30T00:03:55.830Z,9.35
2019-04-30T00:06:22.621Z,9.29
2019-04-30T00:08:52.620Z,9.24
2019-04-30T00:11:21.118Z,9.28
2019-04-30T00:13:50.240Z,9.20
2019-04-30T00:16:18.823Z,9.07
2019-04-30T00:18:55.554Z,9.04
2019-04-30T00:21:18.789Z,9.04
2019-04-30T00:23:47.816Z,9.08
2019-04-30T00:26:17.305Z,9.12
2019-04-30T00:28:47.690Z,9.16
2019-04-30T00:31:23.495Z,9.16
2019-04-30T00:33:47.171Z,9.13
2019-04-30T00:36:17.355Z,9.11
2019-04-30T00:38:45.902Z,9.07
2019-04-30T00:41:15.566Z,9.04
2019-04-30T00:43:48.003Z,9.04
2019-04-30T00:46:17.427Z,8.93
2019-04-30T00:48:45.583Z,8.93
2019-04-30T00:51:21.127Z,8.96
2019-04-30T00:53:51.390Z,8.91
2019-04-30T00:56:15.794Z,8.90
2019-04-30T00:58:45.269Z,8.88
2019-04-30T01:01:25.272Z,8.75
2019-04-30T01:04:12.151Z,8.77
2019-04-30T01:06:42.374Z,8.72
2019-04-30T01:09:11.603Z,8.72
2019-04-30T01:11:46.807Z,8.72
2019-04-30T01:14:10.159Z,8.69
2019-04-30T01:16:39.452Z,8.63
2019-04-30T01:19:10.013Z,8.54
2019-04-30T01:21:41.759Z,8.54
2019-04-30T01:24:09.054Z,8.43
2019-04-30T01:26:39.273Z,8.46
2019-04-30T01:29:07.888Z,8.49
2019-04-30T01:31:37.328Z,8.51
2019-04-30T01:34:11.534Z,8.45
2019-04-30T01:36:36.559Z,8.35
2019-04-30T01:39:06.108Z,8.31
2019-04-30T01:41:34.487Z,8.28
2019-04-30T01:44:03.698Z,8.30
2019-04-30T01:46:33.026Z,8.23
2019-04-30T01:49:01.387Z,8.28
2019-04-30T01:51:29.801Z,8.27
2019-04-30T01:53:59.451Z,8.33
2019-04-30T01:56:45.961Z,8.23
2019-04-30T01:59:16.270Z,8.16
2019-04-30T02:01:46.355Z,8.16
2019-04-30T02:04:19.672Z,8.13
2019-04-30T02:06:49.309Z,8.13
2019-04-30T02:09:18.928Z,8.08
2019-04-30T02:11:48.870Z,8.12
2019-04-30T02:14:18.925Z,8.18
2019-04-30T02:16:49.463Z,8.16
2019-04-30T02:19:18.825Z,8.16
2019-04-30T02:21:48.649Z,8.14
2019-04-30T02:24:19.189Z,8.14
2019-04-30T02:26:48.470Z,8.12
2019-04-30T02:29:19.010Z,8.07
2019-04-30T02:31:50.103Z,8.05
2019-04-30T02:34:21.777Z,8.00
2019-04-30T02:36:53.827Z,7.92
2019-04-30T02:39:22.199Z,7.93
2019-04-30T02:41:51.105Z,7.89
2019-04-30T02:44:20.003Z,7.89
2019-04-30T02:46:50.476Z,7.88
2019-04-30T02:49:20.556Z,7.86
2019-04-30T02:51:50.057Z,7.82
2019-04-30T02:54:23.827Z,7.78
2019-04-30T02:56:54.649Z,7.69
2019-04-30T02:59:23.058Z,7.63
2019-04-30T03:01:51.476Z,7.62
2019-04-30T03:04:19.943Z,7.60
2019-04-30T03:06:50.351Z,7.59
2019-04-30T03:09:20.158Z,7.62
2019-04-30T03:11:49.857Z,7.65
2019-04-30T03:14:20.108Z,7.65
2019-04-30T03:16:53.532Z,7.61
2019-04-30T03:19:32.801Z,7.67
2019-04-30T03:22:05.512Z,7.62
2019-04-30T03:24:34.302Z,7.58
2019-04-30T03:27:03.025Z,7.55
2019-04-30T03:29:31.413Z,7.53
2019-04-30T03:32:02.903Z,7.53
2019-04-30T03:34:32.762Z,7.50
2019-04-30T03:37:02.037Z,7.55
2019-04-30T03:39:33.809Z,7.52
2019-04-30T03:42:01.399Z,7.40
2019-04-30T03:44:32.407Z,7.42
2019-04-30T03:47:00.374Z,7.37
2019-04-30T03:49:29.878Z,7.39
2019-04-30T03:51:59.927Z,7.36
2019-04-30T03:54:29.486Z,7.33
2019-04-30T03:57:00.889Z,7.33
2019-04-30T03:59:30.302Z,7.29
2019-04-30T04:02:16.012Z,7.28
2019-04-30T04:04:46.170Z,7.25
2019-04-30T04:07:16.202Z,7.30
2019-04-30T04:09:49.896Z,7.32
2019-04-30T04:12:22.161Z,7.35
2019-04-30T04:14:51.218Z,7.37
2019-04-30T04:17:20.649Z,7.40
2019-04-30T04:19:50.694Z,7.34
2019-04-30T04:22:20.627Z,7.35
2019-04-30T04:24:50.554Z,7.41
2019-04-30T04:27:19.799Z,7.34
2019-04-30T04:29:51.125Z,7.33
2019-04-30T04:32:23.543Z,7.36
2019-04-30T04:34:50.600Z,7.40
2019-04-30T04:37:20.314Z,7.34
2019-04-30T04:39:50.165Z,7.36
2019-04-30T04:42:19.725Z,7.37
2019-04-30T04:44:50.141Z,7.38
2019-04-30T04:47:19.915Z,7.30
2019-04-30T04:49:52.978Z,7.32
2019-04-30T04:52:21.421Z,7.39
2019-04-30T04:54:50.616Z,7.36
2019-04-30T04:57:22.586Z,7.44
2019-04-30T04:59:50.093Z,7.43
2019-04-30T05:02:39.580Z,7.50
2019-04-30T05:05:09.681Z,7.50
2019-04-30T05:07:39.965Z,7.49
2019-04-30T05:10:09.215Z,7.49
2019-04-30T05:12:40.049Z,7.52
2019-04-30T05:15:09.480Z,7.61
2019-04-30T05:17:39.761Z,7.67
2019-04-30T05:20:10.018Z,7.62
2019-04-30T05:22:39.042Z,7.72
2019-04-30T05:25:08.845Z,7.79
2019-04-30T05:27:39.068Z,7.76
2019-04-30T05:30:11.767Z,7.89
2019-04-30T05:32:39.057Z,7.91
2019-04-30T05:35:09.375Z,7.93
2019-04-30T05:37:38.472Z,8.05
2019-04-30T05:40:09.210Z,8.05
2019-04-30T05:42:38.636Z,8.12
2019-04-30T05:45:09.320Z,8.25
2019-04-30T05:47:38.859Z,8.34
2019-04-30T05:50:09.027Z,8.30
2019-04-30T05:52:39.709Z,8.31
2019-04-30T05:55:08.595Z,8.27
2019-04-30T05:57:40.794Z,8.43
2019-04-30T06:00:09.994Z,8.56
2019-04-30T06:02:39.914Z,8.71
2019-04-30T06:05:08.886Z,8.91
2019-04-30T06:07:39.421Z,9.10
2019-04-30T06:10:12.993Z,9.37
2019-04-30T06:12:43.086Z,9.62
2019-04-30T06:15:29.687Z,9.94
2019-04-30T06:18:05.211Z,10.25
2019-04-30T06:20:28.876Z,10.70
2019-04-30T06:22:59.683Z,11.15
2019-04-30T06:25:37.255Z,11.60
2019-04-30T06:27:58.994Z,12.06
2019-04-30T06:30:29.716Z,12.44
2019-04-30T06:32:59.311Z,12.63
2019-04-30T06:35:29.408Z,12.93
2019-04-30T06:37:59.087Z,13.03
2019-04-30T06:40:29.298Z,13.62
2019-04-30T06:43:00.654Z,13.84
2019-04-30T06:45:29.426Z,14.38
2019-04-30T06:47:58.824Z,14.44
2019-04-30T06:50:29.173Z,14.38
2019-04-30T06:53:00.964Z,14.70
2019-04-30T06:55:30.948Z,14.56
2019-04-30T06:58:11.563Z,14.62
2019-04-30T07:00:40.028Z,14.80
2019-04-30T07:03:09.803Z,14.22
2019-04-30T07:05:39.077Z,13.91
2019-04-30T07:08:36.101Z,14.13
2019-04-30T07:11:14.161Z,14.14
2019-04-30T07:13:43.864Z,13.94
2019-04-30T07:16:12.360Z,14.05
2019-04-30T07:18:40.812Z,14.32
2019-04-30T07:21:09.254Z,14.45
2019-04-30T07:23:38.719Z,14.66
2019-04-30T07:26:09.051Z,14.56
2019-04-30T07:28:44.690Z,14.66
2019-04-30T07:33:39.640Z,14.94
2019-04-30T07:36:09.625Z,15.12
2019-04-30T07:38:43.129Z,14.84
2019-04-30T07:41:09.547Z,14.77
2019-04-30T07:43:39.264Z,14.95
2019-04-30T07:46:09.579Z,14.70
2019-04-30T07:48:39.981Z,14.66
2019-04-30T07:51:10.458Z,14.68
2019-04-30T07:53:40.162Z,14.69
2019-04-30T07:56:24.001Z,14.72
2019-04-30T07:58:39.220Z,14.77
2019-04-30T08:01:10.399Z,14.65
2019-04-30T08:03:50.056Z,14.69
2019-04-30T08:06:22.038Z,14.90
2019-04-30T08:08:50.692Z,15.16
2019-04-30T08:09:34.157Z,14.85
2019-04-30T08:11:25.653Z,15.58
2019-04-30T08:13:50.188Z,15.70
2019-04-30T08:16:19.100Z,16.01
2019-04-30T08:18:49.224Z,16.20
2019-04-30T08:21:19.045Z,16.42
2019-04-30T08:23:48.960Z,16.40
2019-04-30T08:26:18.762Z,17.03
2019-04-30T08:28:48.750Z,17.41
2019-04-30T08:31:19.401Z,17.72
2019-04-30T08:33:49.094Z,17.48
2019-04-30T08:36:19.547Z,17.36
2019-04-30T08:38:49.523Z,17.89
2019-04-30T08:41:19.291Z,18.29
2019-04-30T08:43:49.638Z,18.80
2019-04-30T08:46:19.011Z,19.23
2019-04-30T08:48:51.653Z,19.04
2019-04-30T08:51:19.120Z,19.55
2019-04-30T08:53:48.658Z,19.72
2019-04-30T08:56:21.687Z,20.06
2019-04-30T08:58:49.079Z,20.27
2019-04-30T09:01:19.506Z,20.84
2019-04-30T09:03:50.898Z,21.57
2019-04-30T09:06:20.230Z,21.92
2019-04-30T09:08:49.342Z,21.91
2019-04-30T09:11:24.715Z,22.35
2019-04-30T09:13:48.812Z,22.42
2019-04-30T09:16:19.349Z,20.27
2019-04-30T09:18:49.410Z,21.21
2019-04-30T09:21:18.647Z,21.36
2019-04-30T09:23:51.913Z,20.89
2019-04-30T09:26:18.719Z,21.48
2019-04-30T09:28:49.247Z,21.94
2019-04-30T09:31:19.651Z,21.85
2019-04-30T09:33:49.281Z,21.91
2019-04-30T09:36:20.620Z,21.93
2019-04-30T09:38:48.565Z,21.88
2019-04-30T09:41:19.110Z,21.23
2019-04-30T09:43:49.274Z,21.27
2019-04-30T09:46:24.527Z,21.45
2019-04-30T09:48:47.737Z,20.34
2019-04-30T09:51:16.642Z,19.44
2019-04-30T09:53:55.820Z,20.03
2019-04-30T09:56:15.851Z,20.06
2019-04-30T09:58:44.300Z,19.71
2019-04-30T10:01:12.933Z,19.58
2019-04-30T10:03:42.245Z,19.35
2019-04-30T10:06:11.150Z,19.39
2019-04-30T10:08:47.859Z,19.66
2019-04-30T10:11:17.617Z,20.03
2019-04-30T10:13:45.969Z,19.99
2019-04-30T10:16:19.533Z,19.95
2019-04-30T10:18:48.101Z,20.20
2019-04-30T10:21:18.976Z,20.33
2019-04-30T10:23:47.104Z,20.52
2019-04-30T10:26:15.904Z,20.46
2019-04-30T10:28:45.196Z,20.40
2019-04-30T10:31:13.570Z,20.29
2019-04-30T10:33:42.016Z,20.23
2019-04-30T10:36:10.653Z,20.62
2019-04-30T10:38:39.429Z,21.15
2019-04-30T10:41:08.803Z,21.20
2019-04-30T10:43:39.363Z,21.54
2019-04-30T10:46:09.659Z,22.32
2019-04-30T10:48:38.387Z,22.74
2019-04-30T10:51:08.909Z,23.55
2019-04-30T10:53:37.076Z,23.90
2019-04-30T10:56:05.511Z,23.30
2019-04-30T10:58:33.915Z,22.83
2019-04-30T11:01:02.445Z,21.72
2019-04-30T11:03:31.093Z,21.29
2019-04-30T11:05:59.815Z,20.74
2019-04-30T11:08:28.611Z,20.31
2019-04-30T11:10:57.099Z,19.99
2019-04-30T11:13:25.497Z,19.61
2019-04-30T11:15:53.956Z,19.79
2019-04-30T11:18:22.649Z,20.13
2019-04-30T11:20:51.722Z,20.46
2019-04-30T11:23:21.384Z,21.09
2019-04-30T11:25:51.108Z,21.10
2019-04-30T11:28:20.911Z,21.08
2019-04-30T11:30:51.502Z,20.78
2019-04-30T11:33:20.144Z,20.84
2019-04-30T11:35:52.846Z,20.78
2019-04-30T11:38:20.495Z,20.77
2019-04-30T11:40:49.112Z,21.51
2019-04-30T11:43:18.255Z,21.90
2019-04-30T11:45:58.690Z,23.55
2019-04-30T11:48:28.845Z,25.12
2019-04-30T11:50:57.109Z,26.54
2019-04-30T11:53:28.778Z,28.91
2019-04-30T11:55:56.093Z,30.26
2019-04-30T11:58:24.877Z,31.48
2019-04-30T12:00:53.380Z,32.99
2019-04-30T12:03:21.766Z,33.97
2019-04-30T12:05:50.528Z,34.26
2019-04-30T12:08:23.280Z,34.14
2019-04-30T12:10:56.356Z,34.88
2019-04-30T12:13:26.092Z,36.52
2019-04-30T12:15:55.844Z,37.61
2019-04-30T12:18:24.372Z,38.51
2019-04-30T12:20:53.120Z,37.10
2019-04-30T12:23:21.607Z,38.02
2019-04-30T12:25:50.115Z,38.06
2019-04-30T12:28:19.552Z,39.11
2019-04-30T12:30:48.991Z,38.55
2019-04-30T12:33:19.127Z,39.25
2019-04-30T12:35:49.159Z,38.68
2019-04-30T12:38:19.249Z,39.49
2019-04-30T12:40:48.405Z,38.84
2019-04-30T12:43:17.248Z,39.68
2019-04-30T12:45:46.044Z,40.88
2019-04-30T12:48:20.004Z,40.03
2019-04-30T12:51:04.548Z,40.62
2019-04-30T12:53:34.584Z,40.51
2019-04-30T12:56:27.122Z,40.97
2019-04-30T12:58:53.446Z,40.89
2019-04-30T13:01:22.212Z,40.55
2019-04-30T13:03:58.728Z,40.69
2019-04-30T13:06:21.594Z,39.82
2019-04-30T13:08:52.586Z,41.81
2019-04-30T13:11:21.670Z,41.67
2019-04-30T13:13:51.357Z,41.24
2019-04-30T13:16:20.394Z,40.06
2019-04-30T13:18:49.370Z,39.45
2019-04-30T13:21:18.443Z,38.83
2019-04-30T13:23:47.109Z,38.27
2019-04-30T13:26:15.571Z,38.41
2019-04-30T13:28:54.351Z,38.39
2019-04-30T13:31:22.705Z,37.76
2019-04-30T13:34:02.401Z,35.76
2019-04-30T13:36:31.269Z,35.11
2019-04-30T13:39:13.422Z,33.08
2019-04-30T13:41:59.407Z,31.83
2019-04-30T13:44:39.423Z,31.29
2019-04-30T13:47:10.668Z,30.59
2019-04-30T13:49:39.486Z,28.97
2019-04-30T13:52:08.167Z,28.05
2019-04-30T13:54:39.714Z,26.96
2019-04-30T13:57:09.081Z,26.68
2019-04-30T13:59:37.678Z,27.12
2019-04-30T14:02:06.403Z,27.40
2019-04-30T14:04:51.544Z,26.91
2019-04-30T14:07:21.713Z,25.68
2019-04-30T14:09:52.442Z,24.41
2019-04-30T14:12:20.997Z,23.39
2019-04-30T14:14:49.481Z,22.98
2019-04-30T14:17:19.010Z,22.18
2019-04-30T14:19:47.679Z,21.96
2019-04-30T14:22:16.275Z,21.72
2019-04-30T14:24:44.736Z,21.73
2019-04-30T14:27:13.276Z,21.59
2019-04-30T14:29:41.738Z,21.36
2019-04-30T14:32:10.278Z,21.40
2019-04-30T14:34:39.538Z,21.27
2019-04-30T14:37:08.098Z,21.12
2019-04-30T14:39:36.812Z,21.00
2019-04-30T14:42:06.472Z,20.83
2019-04-30T14:44:37.438Z,20.85
2019-04-30T14:47:25.785Z,20.88
2019-04-30T14:50:04.408Z,20.79
2019-04-30T14:52:31.088Z,21.21
2019-04-30T14:55:18.728Z,21.72
2019-04-30T14:58:05.411Z,22.08
2019-04-30T15:00:38.840Z,22.22
2019-04-30T15:03:19.377Z,21.86
2019-04-30T15:05:51.348Z,21.53
2019-04-30T15:08:19.405Z,21.37
2019-04-30T15:10:48.030Z,20.98
2019-04-30T15:13:16.579Z,20.86
2019-04-30T15:15:45.246Z,21.02
2019-04-30T15:18:13.822Z,20.80
2019-04-30T15:20:42.566Z,20.97
2019-04-30T15:23:18.886Z,20.93
2019-04-30T15:25:43.293Z,21.21
2019-04-30T15:28:11.785Z,21.40
2019-04-30T15:30:42.002Z,21.47
2019-04-30T15:33:15.613Z,21.51
2019-04-30T15:35:44.230Z,21.48
2019-04-30T15:38:12.847Z,21.22
2019-04-30T15:40:41.486Z,21.06
2019-04-30T15:43:10.563Z,20.83
2019-04-30T15:45:39.233Z,20.84
2019-04-30T15:48:08.573Z,20.86
2019-04-30T15:50:39.169Z,20.52
2019-04-30T15:53:09.352Z,20.36
2019-04-30T15:55:37.876Z,20.51
2019-04-30T15:58:13.983Z,20.64
2019-04-30T16:00:42.570Z,20.59
2019-04-30T16:03:12.660Z,20.75
2019-04-30T16:05:42.699Z,20.73
2019-04-30T16:08:16.073Z,20.45
2019-04-30T16:10:52.064Z,20.43
2019-04-30T16:13:25.048Z,20.35
2019-04-30T16:15:53.466Z,20.30
2019-04-30T16:18:22.141Z,20.29
2019-04-30T16:20:50.604Z,20.07
2019-04-30T16:23:19.855Z,19.96
2019-04-30T16:25:48.436Z,19.79
2019-04-30T16:28:17.232Z,19.63
2019-04-30T16:30:46.129Z,19.50
2019-04-30T16:33:14.566Z,19.28
2019-04-30T16:35:42.989Z,19.23
2019-04-30T16:38:11.426Z,19.16
2019-04-30T16:40:39.890Z,19.10
2019-04-30T16:43:08.532Z,19.05
2019-04-30T16:45:38.833Z,19.25
2019-04-30T16:48:07.861Z,19.23
2019-04-30T16:50:38.226Z,19.08
2019-04-30T16:53:07.336Z,19.02
2019-04-30T16:55:35.874Z,18.95
2019-04-30T16:58:04.664Z,18.89
2019-04-30T17:00:33.270Z,18.89
2019-04-30T17:03:03.447Z,19.00
2019-04-30T17:05:39.646Z,18.87
2019-04-30T17:08:12.915Z,18.83
2019-04-30T17:10:55.272Z,18.78
2019-04-30T17:13:28.986Z,18.77
2019-04-30T17:16:05.393Z,18.59
2019-04-30T17:18:41.675Z,18.47
2019-04-30T17:21:09.863Z,18.35
2019-04-30T17:23:38.524Z,18.32
2019-04-30T17:26:07.048Z,18.22
2019-04-30T17:28:35.559Z,18.13
2019-04-30T17:31:04.116Z,18.28
2019-04-30T17:33:32.663Z,18.14
2019-04-30T17:36:01.054Z,18.18
2019-04-30T17:38:29.560Z,18.15
2019-04-30T17:40:58.033Z,18.32
2019-04-30T17:43:26.403Z,18.16
2019-04-30T17:45:54.867Z,17.97
2019-04-30T17:48:23.663Z,17.88
2019-04-30T17:50:52.023Z,17.81
2019-04-30T17:53:20.698Z,17.72
2019-04-30T17:55:49.202Z,17.69
2019-04-30T17:58:20.454Z,17.64
2019-04-30T18:00:49.530Z,17.76
2019-04-30T18:03:18.953Z,17.75
2019-04-30T18:05:49.178Z,17.66
2019-04-30T18:08:17.991Z,17.60
2019-04-30T18:10:47.612Z,17.56
2019-04-30T18:13:16.439Z,17.47
2019-04-30T18:15:45.144Z,17.36
2019-04-30T18:18:24.818Z,17.27
2019-04-30T18:20:56.897Z,17.22
2019-04-30T18:23:26.859Z,17.21
2019-04-30T18:25:56.957Z,17.21
2019-04-30T18:28:25.498Z,17.20
2019-04-30T18:30:54.278Z,17.14
2019-04-30T18:33:22.700Z,17.07
2019-04-30T18:35:51.131Z,17.01
2019-04-30T18:38:19.526Z,16.92
2019-04-30T18:40:49.547Z,16.85
2019-04-30T18:43:18.919Z,16.76
2019-04-30T18:45:49.492Z,16.67
2019-04-30T18:48:19.505Z,16.63
2019-04-30T18:50:47.967Z,16.62
2019-04-30T18:53:21.112Z,16.58
2019-04-30T18:55:50.766Z,16.55
2019-04-30T18:58:20.118Z,16.52
2019-04-30T19:00:49.456Z,16.47
2019-04-30T19:03:21.327Z,16.47
2019-04-30T19:05:50.025Z,16.43
2019-04-30T19:08:32.340Z,16.39
2019-04-30T19:11:18.924Z,16.36
2019-04-30T19:13:51.512Z,16.30
2019-04-30T19:16:25.704Z,16.30
2019-04-30T19:18:56.189Z,16.28
2019-04-30T19:21:24.656Z,16.25
2019-04-30T19:23:53.093Z,16.16
2019-04-30T19:26:21.567Z,16.13
2019-04-30T19:28:50.410Z,16.14
2019-04-30T19:31:19.906Z,16.11
2019-04-30T19:33:49.006Z,16.07
2019-04-30T19:36:20.337Z,16.03
2019-04-30T19:38:50.655Z,15.96
2019-04-30T19:41:19.375Z,15.90
2019-04-30T19:43:50.022Z,15.89
2019-04-30T19:46:18.881Z,15.89
2019-04-30T19:48:50.437Z,15.85
2019-04-30T19:51:19.598Z,15.83
2019-04-30T19:53:48.970Z,15.69
2019-04-30T19:56:18.342Z,15.64
2019-04-30T19:58:59.258Z,15.60
2019-04-30T20:01:18.058Z,15.57
2019-04-30T20:03:46.773Z,15.53
2019-04-30T20:06:15.263Z,15.55
2019-04-30T20:08:43.675Z,15.48
2019-04-30T20:11:12.119Z,15.42
2019-04-30T20:13:40.620Z,15.36
2019-04-30T20:16:09.621Z,15.35
2019-04-30T20:18:38.983Z,15.26
2019-04-30T20:21:09.415Z,15.25
2019-04-30T20:23:37.798Z,15.24
2019-04-30T20:26:06.178Z,15.20
2019-04-30T20:28:39.976Z,15.13
2019-04-30T20:31:04.907Z,15.07
2019-04-30T20:33:33.283Z,15.09
2019-04-30T20:36:01.753Z,15.11
2019-04-30T20:41:10.586Z,14.97
2019-04-30T20:43:39.536Z,14.92
2019-04-30T20:46:08.650Z,14.93
2019-04-30T20:48:39.316Z,14.91
2019-04-30T20:51:09.589Z,14.90
2019-04-30T20:53:39.326Z,14.92
2019-04-30T20:56:09.250Z,14.93
2019-04-30T20:58:40.510Z,14.95
2019-04-30T21:01:09.605Z,14.93
2019-04-30T21:03:39.549Z,15.01
2019-04-30T21:06:08.846Z,15.02
2019-04-30T21:08:37.471Z,14.98
2019-04-30T21:11:05.977Z,15.02
2019-04-30T21:13:34.392Z,15.03
2019-04-30T21:16:02.746Z,15.09
2019-04-30T21:18:32.569Z,15.11
2019-04-30T21:21:01.184Z,15.11
2019-04-30T21:23:29.711Z,15.10
2019-04-30T21:25:58.916Z,15.14
2019-04-30T21:28:29.517Z,15.11
2019-04-30T21:30:59.507Z,15.14
2019-04-30T21:33:41.568Z,15.13
2019-04-30T21:36:11.776Z,15.13
2019-04-30T21:38:40.244Z,15.15
2019-04-30T21:41:09.991Z,15.14
2019-04-30T21:43:38.433Z,15.12
2019-04-30T21:46:06.911Z,15.08
2019-04-30T21:48:35.314Z,15.04
2019-04-30T21:51:03.738Z,15.05
2019-04-30T21:53:32.132Z,15.07
2019-04-30T21:56:00.514Z,15.04
2019-04-30T21:58:29.327Z,15.06
2019-04-30T22:01:08.671Z,15.07
2019-04-30T22:03:39.402Z,15.03
2019-04-30T22:06:08.466Z,14.89
2019-04-30T22:08:38.806Z,14.93
2019-04-30T22:11:09.564Z,14.97
2019-04-30T22:13:39.465Z,14.93
2019-04-30T22:16:08.402Z,14.92
2019-04-30T22:18:36.786Z,14.90
2019-04-30T22:21:05.551Z,14.86
2019-04-30T22:23:34.005Z,14.73
2019-04-30T22:26:02.560Z,14.76
2019-04-30T22:28:31.047Z,14.80
2019-04-30T22:30:59.598Z,14.85
2019-04-30T22:33:29.234Z,14.87
2019-04-30T22:35:59.543Z,14.80
2019-04-30T22:38:29.604Z,14.81
2019-04-30T22:40:58.980Z,14.78
2019-04-30T22:43:27.503Z,14.74
2019-04-30T22:45:59.459Z,14.72
2019-04-30T22:48:28.697Z,14.77
2019-04-30T22:50:57.349Z,14.78
2019-04-30T22:53:25.793Z,14.75
2019-04-30T22:55:54.408Z,14.78
2019-04-30T22:58:22.888Z,14.74
2019-04-30T23:00:52.976Z,14.78
2019-04-30T23:03:29.161Z,14.75
2019-04-30T23:05:57.564Z,14.78
2019-04-30T23:08:25.939Z,14.81
2019-04-30T23:10:54.331Z,14.76
2019-04-30T23:13:22.862Z,14.75
2019-04-30T23:15:53.780Z,14.75
2019-04-30T23:18:22.213Z,14.72
2019-04-30T23:20:51.093Z,14.73
2019-04-30T23:23:19.487Z,14.74
2019-04-30T23:25:47.927Z,14.74
2019-04-30T23:28:16.642Z,14.74
2019-04-30T23:30:45.093Z,14.72
2019-04-30T23:33:13.502Z,14.74
2019-04-30T23:35:41.949Z,14.70
2019-04-30T23:38:10.434Z,14.70
2019-04-30T23:40:50.164Z,14.68
2019-04-30T23:43:18.892Z,14.70
2019-04-30T23:45:47.345Z,14.64
2019-04-30T23:48:16.173Z,14.57
2019-04-30T23:50:44.615Z,14.38
2019-04-30T23:53:13.445Z,14.25
2019-04-30T23:55:41.913Z,14.08
2019-04-30T23:58:10.287Z,14.02
